createdAt,value
2022-09-11T00:00:53.982Z,12.96
2022-09-11T00:01:54.036Z,12.93
2022-09-11T00:02:53.987Z,12.90
2022-09-11T00:03:53.954Z,12.90
2022-09-11T00:04:53.931Z,12.87
2022-09-11T00:05:53.921Z,12.84
2022-09-11T00:06:53.896Z,12.83
2022-09-11T00:07:53.901Z,12.81
2022-09-11T00:08:53.923Z,12.77
2022-09-11T00:09:53.880Z,12.77
2022-09-11T00:10:53.888Z,12.76
2022-09-11T00:11:53.842Z,12.76
2022-09-11T00:12:53.839Z,12.73
2022-09-11T00:13:53.887Z,12.71
2022-09-11T00:14:53.847Z,12.69
2022-09-11T00:15:53.861Z,12.68
2022-09-11T00:16:53.786Z,12.68
2022-09-11T00:17:53.800Z,12.66
2022-09-11T00:18:53.784Z,12.63
2022-09-11T00:19:53.790Z,12.63
2022-09-11T00:20:53.760Z,12.61
2022-09-11T00:21:53.751Z,12.59
2022-09-11T00:22:53.729Z,12.55
2022-09-11T00:23:53.748Z,12.55
2022-09-11T00:24:53.731Z,12.55
2022-09-11T00:25:53.717Z,12.51
2022-09-11T00:26:53.689Z,12.50
2022-09-11T00:27:53.679Z,12.48
2022-09-11T00:28:53.680Z,12.47
2022-09-11T00:29:53.695Z,12.44
2022-09-11T00:30:53.643Z,12.44
2022-09-11T00:31:53.645Z,12.41
2022-09-11T00:32:53.616Z,12.41
2022-09-11T00:33:53.633Z,12.36
2022-09-11T00:34:53.633Z,12.38
2022-09-11T00:35:53.599Z,12.35
2022-09-11T00:36:53.609Z,12.33
2022-09-11T00:37:53.583Z,12.35
2022-09-11T00:38:53.612Z,12.33
2022-09-11T00:39:53.593Z,12.33
2022-09-11T00:40:53.560Z,12.35
2022-09-11T00:41:53.565Z,12.35
2022-09-11T00:42:53.539Z,12.35
2022-09-11T00:43:53.519Z,12.32
2022-09-11T00:44:53.522Z,12.30
2022-09-11T00:45:53.554Z,12.30
2022-09-11T00:46:53.504Z,12.29
2022-09-11T00:47:53.490Z,12.29
2022-09-11T00:48:53.457Z,12.26
2022-09-11T00:49:53.489Z,12.25
2022-09-11T00:50:53.461Z,12.22
2022-09-11T00:51:53.465Z,12.22
2022-09-11T00:52:53.432Z,12.22
2022-09-11T00:53:53.443Z,12.22
2022-09-11T00:54:53.398Z,12.18
2022-09-11T00:55:53.385Z,12.15
2022-09-11T00:56:53.396Z,12.17
2022-09-11T00:57:53.383Z,12.14
2022-09-11T00:58:53.349Z,12.15
2022-09-11T00:59:53.340Z,12.13
2022-09-11T01:00:53.339Z,12.11
2022-09-11T01:01:53.385Z,12.10
2022-09-11T01:02:53.320Z,12.07
2022-09-11T01:03:53.305Z,12.07
2022-09-11T01:04:53.276Z,12.07
2022-09-11T01:05:53.293Z,12.03
2022-09-11T01:06:53.295Z,12.04
2022-09-11T01:07:53.281Z,12.04
2022-09-11T01:08:53.249Z,12.03
2022-09-11T01:09:53.253Z,12.03
2022-09-11T01:10:53.253Z,12.03
2022-09-11T01:11:53.208Z,12.00
2022-09-11T01:12:53.241Z,12.00
2022-09-11T01:13:53.220Z,12.03
2022-09-11T01:14:53.177Z,12.03
2022-09-11T01:15:53.232Z,12.03
2022-09-11T01:16:53.158Z,12.04
2022-09-11T01:17:53.170Z,12.03
2022-09-11T01:18:53.198Z,12.03
2022-09-11T01:19:53.220Z,12.03
2022-09-11T01:20:53.114Z,12.03
2022-09-11T01:21:53.161Z,12.03
2022-09-11T01:22:53.103Z,12.03
2022-09-11T01:23:53.090Z,12.00
2022-09-11T01:24:53.073Z,12.03
2022-09-11T01:25:53.126Z,12.03
2022-09-11T01:26:53.062Z,12.03
2022-09-11T01:27:53.106Z,12.00
2022-09-11T01:28:53.038Z,11.99
2022-09-11T01:29:53.021Z,11.99
2022-09-11T01:30:53.005Z,11.97
2022-09-11T01:31:53.030Z,11.97
2022-09-11T01:32:53.022Z,11.96
2022-09-11T01:33:53.007Z,11.96
2022-09-11T01:34:52.978Z,11.96
2022-09-11T01:35:52.960Z,11.96
2022-09-11T01:36:52.951Z,11.99
2022-09-11T01:37:52.968Z,12.04
2022-09-11T01:38:52.925Z,12.08
2022-09-11T01:39:52.972Z,12.13
2022-09-11T01:40:52.898Z,12.15
2022-09-11T01:41:52.959Z,12.23
2022-09-11T01:42:52.894Z,12.25
2022-09-11T01:43:52.877Z,12.28
2022-09-11T01:44:52.867Z,12.29
2022-09-11T01:45:52.923Z,12.32
2022-09-11T01:46:52.851Z,12.35
2022-09-11T01:47:52.864Z,12.38
2022-09-11T01:48:52.826Z,12.41
2022-09-11T01:49:52.824Z,12.46
2022-09-11T01:50:52.799Z,12.47
2022-09-11T01:51:52.798Z,12.48
2022-09-11T01:52:52.815Z,12.51
2022-09-11T01:53:52.790Z,12.51
2022-09-11T01:54:52.766Z,12.54
2022-09-11T01:55:52.770Z,12.58
2022-09-11T01:56:52.738Z,12.58
2022-09-11T01:57:52.768Z,12.62
2022-09-11T01:58:52.743Z,12.63
2022-09-11T01:59:52.834Z,12.63
2022-09-11T02:00:52.730Z,12.68
2022-09-11T02:01:52.731Z,12.68
2022-09-11T02:02:52.690Z,12.69
2022-09-11T02:03:52.676Z,12.73
2022-09-11T02:04:52.646Z,12.76
2022-09-11T02:05:52.701Z,12.77
2022-09-11T02:06:52.636Z,12.79
2022-09-11T02:07:52.650Z,12.80
2022-09-11T02:08:52.629Z,12.83
2022-09-11T02:09:52.612Z,12.87
2022-09-11T02:10:52.600Z,12.90
2022-09-11T02:11:52.591Z,12.93
2022-09-11T02:12:52.572Z,12.98
2022-09-11T02:13:52.582Z,13.01
2022-09-11T02:14:52.555Z,13.02
2022-09-11T02:15:52.572Z,13.06
2022-09-11T02:16:52.529Z,13.09
2022-09-11T02:17:52.529Z,13.14
2022-09-11T02:18:52.529Z,13.19
2022-09-11T02:19:52.531Z,13.24
2022-09-11T02:20:52.481Z,13.30
2022-09-11T02:21:52.487Z,13.32
2022-09-11T02:22:52.459Z,13.38
2022-09-11T02:23:52.500Z,13.40
2022-09-11T02:24:52.431Z,13.43
2022-09-11T02:25:52.476Z,13.43
2022-09-11T02:26:52.433Z,13.47
2022-09-11T02:27:52.411Z,13.53
2022-09-11T02:28:52.394Z,13.55
2022-09-11T02:29:52.427Z,13.57
2022-09-11T02:30:52.371Z,13.58
2022-09-11T02:31:52.379Z,13.60
2022-09-11T02:32:52.347Z,13.60
2022-09-11T02:33:52.361Z,13.63
2022-09-11T02:34:52.354Z,13.63
2022-09-11T02:35:52.356Z,13.61
2022-09-11T02:36:52.333Z,13.64
2022-09-11T02:37:52.311Z,13.64
2022-09-11T02:38:52.296Z,13.61
2022-09-11T02:39:52.385Z,13.64
2022-09-11T02:40:52.259Z,13.64
2022-09-11T02:41:52.281Z,13.64
2022-09-11T02:42:52.262Z,13.64
2022-09-11T02:43:52.240Z,13.63
2022-09-11T02:44:52.242Z,13.64
2022-09-11T02:45:52.268Z,13.64
2022-09-11T02:46:52.200Z,13.64
2022-09-11T02:47:52.214Z,13.64
2022-09-11T02:48:52.200Z,13.63
2022-09-11T02:49:52.195Z,13.64
2022-09-11T02:50:52.214Z,13.63
2022-09-11T02:51:52.164Z,13.63
2022-09-11T02:52:52.142Z,13.64
2022-09-11T02:53:52.144Z,13.65
2022-09-11T02:54:52.121Z,13.65
2022-09-11T02:55:52.134Z,13.64
2022-09-11T02:56:52.148Z,13.63
2022-09-11T02:57:52.098Z,13.64
2022-09-11T02:58:52.080Z,13.61
2022-09-11T02:59:52.078Z,13.63
2022-09-11T03:00:52.093Z,13.64
2022-09-11T03:01:52.116Z,13.63
2022-09-11T03:02:52.066Z,13.63
2022-09-11T03:03:52.034Z,13.61
2022-09-11T03:04:52.005Z,13.60
2022-09-11T03:05:52.043Z,13.61
2022-09-11T03:06:52.072Z,13.61
2022-09-11T03:07:51.990Z,13.63
2022-09-11T03:08:52.027Z,13.61
2022-09-11T03:09:51.982Z,13.58
2022-09-11T03:10:51.974Z,13.60
2022-09-11T03:11:51.951Z,13.60
2022-09-11T03:12:51.925Z,13.58
2022-09-11T03:13:51.931Z,13.61
2022-09-11T03:14:51.908Z,13.64
2022-09-11T03:15:52.011Z,13.65
2022-09-11T03:16:51.946Z,13.64
2022-09-11T03:17:51.902Z,13.63
2022-09-11T03:18:51.876Z,13.60
2022-09-11T03:19:51.857Z,13.58
2022-09-11T03:20:51.853Z,13.58
2022-09-11T03:21:51.892Z,13.60
2022-09-11T03:22:51.868Z,13.60
2022-09-11T03:23:51.824Z,13.58
2022-09-11T03:24:51.798Z,13.54
2022-09-11T03:25:51.867Z,13.54
2022-09-11T03:26:51.791Z,13.55
2022-09-11T03:27:51.794Z,13.55
2022-09-11T03:28:51.808Z,13.55
2022-09-11T03:29:51.771Z,13.57
2022-09-11T03:30:51.738Z,13.55
2022-09-11T03:31:51.850Z,13.54
2022-09-11T03:32:51.730Z,13.53
2022-09-11T03:33:51.723Z,13.53
2022-09-11T03:34:51.705Z,13.53
2022-09-11T03:35:51.698Z,13.53
2022-09-11T03:36:51.728Z,13.51
2022-09-11T03:37:51.703Z,13.53
2022-09-11T03:38:51.675Z,13.54
2022-09-11T03:39:51.731Z,13.53
2022-09-11T03:40:51.638Z,13.54
2022-09-11T03:41:51.659Z,13.54
2022-09-11T03:42:51.674Z,13.53
2022-09-11T03:43:51.619Z,13.54
2022-09-11T03:44:51.616Z,13.54
2022-09-11T03:45:51.655Z,13.55
2022-09-11T03:46:51.580Z,13.57
2022-09-11T03:47:51.587Z,13.58
2022-09-11T03:48:51.547Z,13.60
2022-09-11T03:49:51.560Z,13.60
2022-09-11T03:50:51.557Z,13.61
2022-09-11T03:51:51.530Z,13.63
2022-09-11T03:52:51.533Z,13.63
2022-09-11T03:53:51.507Z,13.63
2022-09-11T03:54:51.507Z,13.61
2022-09-11T03:55:51.500Z,13.57
2022-09-11T03:56:51.468Z,13.58
2022-09-11T03:57:51.497Z,13.60
2022-09-11T03:58:51.461Z,13.60
2022-09-11T03:59:51.460Z,13.57
2022-09-11T04:00:51.526Z,13.55
2022-09-11T04:01:51.493Z,13.55
2022-09-11T04:02:51.444Z,13.55
2022-09-11T04:03:51.438Z,13.51
2022-09-11T04:04:51.408Z,13.49
2022-09-11T04:05:51.397Z,13.51
2022-09-11T04:06:51.382Z,13.51
2022-09-11T04:07:51.407Z,13.53
2022-09-11T04:08:51.357Z,13.51
2022-09-11T04:09:51.388Z,13.53
2022-09-11T04:10:51.351Z,13.54
2022-09-11T04:11:51.340Z,13.54
2022-09-11T04:12:51.303Z,13.54
2022-09-11T04:13:51.315Z,13.54
2022-09-11T04:14:51.308Z,13.54
2022-09-11T04:15:51.279Z,13.57
2022-09-11T04:16:51.267Z,13.55
2022-09-11T04:17:51.290Z,13.57
2022-09-11T04:18:51.285Z,13.57
2022-09-11T04:19:51.274Z,13.57
2022-09-11T04:20:51.231Z,13.60
2022-09-11T04:21:51.260Z,13.61
2022-09-11T04:22:51.270Z,13.60
2022-09-11T04:23:51.216Z,13.60
2022-09-11T04:24:51.207Z,13.61
2022-09-11T04:25:51.222Z,13.61
2022-09-11T04:26:51.176Z,13.64
2022-09-11T04:27:51.158Z,13.64
2022-09-11T04:28:51.164Z,13.64
2022-09-11T04:29:51.155Z,13.64
2022-09-11T04:30:51.127Z,13.65
2022-09-11T04:31:51.197Z,13.65
2022-09-11T04:32:51.122Z,13.64
2022-09-11T04:33:53.835Z,13.63
2022-09-11T04:34:51.136Z,13.63
2022-09-11T04:35:51.142Z,13.65
2022-09-11T04:36:51.321Z,13.64
2022-09-11T04:37:51.072Z,13.65
2022-09-11T04:38:51.071Z,13.67
2022-09-11T04:39:51.064Z,13.68
2022-09-11T04:40:51.075Z,13.68
2022-09-11T04:41:50.976Z,13.72
2022-09-11T04:42:50.949Z,13.68
2022-09-11T04:43:50.940Z,13.72
2022-09-11T04:44:50.945Z,13.71
2022-09-11T04:45:50.939Z,13.72
2022-09-11T04:46:50.905Z,13.71
2022-09-11T04:47:50.889Z,13.72
2022-09-11T04:48:50.880Z,13.72
2022-09-11T04:49:50.897Z,13.73
2022-09-11T04:50:50.881Z,13.73
2022-09-11T04:51:50.857Z,13.73
2022-09-11T04:52:50.855Z,13.72
2022-09-11T04:53:50.832Z,13.75
2022-09-11T04:54:50.839Z,13.76
2022-09-11T04:55:50.809Z,13.76
2022-09-11T04:56:50.803Z,13.76
2022-09-11T04:57:50.807Z,13.75
2022-09-11T04:58:50.840Z,13.79
2022-09-11T04:59:50.789Z,13.79
2022-09-11T05:00:50.810Z,13.80
2022-09-11T05:01:50.789Z,13.80
2022-09-11T05:02:50.742Z,13.79
2022-09-11T05:03:50.783Z,13.79
2022-09-11T05:04:50.741Z,13.80
2022-09-11T05:05:50.725Z,13.82
2022-09-11T05:06:50.698Z,13.86
2022-09-11T05:07:50.679Z,13.85
2022-09-11T05:08:50.716Z,13.83
2022-09-11T05:09:50.676Z,13.83
2022-09-11T05:10:50.666Z,13.83
2022-09-11T05:11:50.639Z,13.85
2022-09-11T05:12:50.643Z,13.86
2022-09-11T05:13:50.624Z,13.86
2022-09-11T05:14:50.664Z,13.90
2022-09-11T05:15:50.602Z,13.91
2022-09-11T05:16:50.607Z,13.91
2022-09-11T05:17:50.574Z,13.88
2022-09-11T05:18:50.578Z,13.85
2022-09-11T05:19:50.558Z,13.83
2022-09-11T05:20:50.581Z,13.86
2022-09-11T05:21:50.556Z,13.90
2022-09-11T05:22:50.534Z,13.91
2022-09-11T05:23:50.535Z,13.93
2022-09-11T05:24:50.509Z,13.94
2022-09-11T05:25:50.523Z,13.94
2022-09-11T05:26:50.527Z,13.93
2022-09-11T05:27:50.473Z,13.93
2022-09-11T05:28:50.532Z,13.91
2022-09-11T05:29:50.473Z,13.86
2022-09-11T05:30:50.454Z,13.91
2022-09-11T05:31:50.483Z,13.93
2022-09-11T05:32:50.442Z,13.88
2022-09-11T05:33:50.499Z,13.83
2022-09-11T05:34:50.552Z,13.82
2022-09-11T05:35:50.409Z,13.80
2022-09-11T05:36:50.437Z,13.82
2022-09-11T05:37:50.368Z,13.82
2022-09-11T05:38:50.360Z,13.82
2022-09-11T05:39:50.401Z,13.83
2022-09-11T05:40:50.368Z,13.85
2022-09-11T05:41:50.365Z,13.85
2022-09-11T05:42:50.328Z,13.85
2022-09-11T05:43:50.311Z,13.86
2022-09-11T05:44:50.317Z,13.91
2022-09-11T05:45:50.311Z,13.90
2022-09-11T05:46:50.312Z,13.90
2022-09-11T05:47:53.159Z,13.91
2022-09-11T05:48:50.277Z,13.90
2022-09-11T05:49:50.275Z,13.91
2022-09-11T05:50:50.266Z,13.90
2022-09-11T05:51:50.227Z,13.88
2022-09-11T05:52:50.301Z,13.86
2022-09-11T05:53:50.196Z,13.90
2022-09-11T05:54:50.240Z,13.90
2022-09-11T05:55:50.193Z,13.90
2022-09-11T05:56:50.187Z,13.93
2022-09-11T05:57:50.180Z,13.94
2022-09-11T05:58:50.215Z,13.94
2022-09-11T05:59:50.143Z,13.98
2022-09-11T06:00:50.224Z,14.00
2022-09-11T06:01:55.503Z,14.01
2022-09-11T06:02:50.131Z,14.05
2022-09-11T06:03:50.127Z,14.05
2022-09-11T06:04:50.150Z,14.09
2022-09-11T06:05:50.079Z,14.13
2022-09-11T06:06:50.232Z,14.15
2022-09-11T06:07:50.058Z,14.18
2022-09-11T06:08:50.084Z,14.22
2022-09-11T06:09:50.059Z,14.22
2022-09-11T06:10:50.043Z,14.23
2022-09-11T06:11:50.056Z,14.28
2022-09-11T06:12:50.011Z,14.34
2022-09-11T06:13:50.007Z,14.37
2022-09-11T06:14:50.025Z,14.41
2022-09-11T06:15:49.986Z,14.41
2022-09-11T06:16:50.055Z,14.46
2022-09-11T06:17:49.950Z,14.51
2022-09-11T06:18:50.164Z,14.51
2022-09-11T06:19:49.964Z,14.53
2022-09-11T06:20:49.938Z,14.58
2022-09-11T06:21:49.919Z,14.61
2022-09-11T06:22:49.935Z,14.64
2022-09-11T06:23:49.902Z,14.66
2022-09-11T06:24:49.911Z,14.69
2022-09-11T06:25:49.874Z,14.73
2022-09-11T06:26:49.880Z,14.77
2022-09-11T06:27:49.869Z,14.78
2022-09-11T06:28:49.848Z,14.79
2022-09-11T06:29:49.903Z,14.83
2022-09-11T06:30:49.915Z,14.87
2022-09-11T06:31:49.847Z,14.92
2022-09-11T06:32:49.819Z,14.93
2022-09-11T06:33:49.803Z,14.95
2022-09-11T06:34:49.809Z,14.96
2022-09-11T06:35:49.787Z,15.01
2022-09-11T06:36:52.177Z,15.04
2022-09-11T06:37:49.772Z,15.05
2022-09-11T06:38:49.759Z,15.08
2022-09-11T06:39:49.791Z,15.12
2022-09-11T06:40:49.779Z,15.17
2022-09-11T06:41:49.699Z,15.20
2022-09-11T06:42:49.723Z,15.25
2022-09-11T06:43:49.690Z,15.29
2022-09-11T06:44:50.912Z,15.32
2022-09-11T06:45:49.728Z,15.38
2022-09-11T06:46:49.697Z,15.41
2022-09-11T06:47:49.678Z,15.47
2022-09-11T06:48:49.626Z,15.48
2022-09-11T06:49:49.642Z,15.48
2022-09-11T06:50:49.639Z,15.52
2022-09-11T06:51:49.653Z,15.58
2022-09-11T06:52:49.633Z,15.59
2022-09-11T06:53:49.594Z,15.60
2022-09-11T06:54:49.593Z,15.62
2022-09-11T06:55:49.575Z,15.62
2022-09-11T06:56:49.549Z,15.60
2022-09-11T06:57:49.532Z,15.59
2022-09-11T06:58:49.583Z,15.59
2022-09-11T06:59:49.537Z,15.54
2022-09-11T07:00:49.606Z,15.52
2022-09-11T07:01:49.657Z,15.51
2022-09-11T07:02:49.510Z,15.51
2022-09-11T07:03:49.487Z,15.52
2022-09-11T07:04:49.518Z,15.58
2022-09-11T07:05:49.520Z,15.58
2022-09-11T07:06:49.483Z,15.52
2022-09-11T07:07:49.463Z,15.50
2022-09-11T07:08:49.447Z,15.51
2022-09-11T07:09:49.441Z,15.51
2022-09-11T07:10:49.577Z,15.47
2022-09-11T07:11:49.417Z,15.47
2022-09-11T07:12:49.418Z,15.48
2022-09-11T07:13:49.384Z,15.45
2022-09-11T07:14:49.452Z,15.45
2022-09-11T07:15:49.431Z,15.45
2022-09-11T07:16:49.416Z,15.47
2022-09-11T07:17:49.322Z,15.50
2022-09-11T07:18:49.338Z,15.48
2022-09-11T07:19:49.363Z,15.50
2022-09-11T07:20:49.305Z,15.51
2022-09-11T07:21:49.339Z,15.52
2022-09-11T07:22:49.295Z,15.58
2022-09-11T07:23:49.270Z,15.62
2022-09-11T07:24:49.263Z,15.68
2022-09-11T07:25:49.237Z,15.69
2022-09-11T07:26:49.286Z,15.76
2022-09-11T07:27:49.218Z,15.78
2022-09-11T07:28:49.264Z,15.85
2022-09-11T07:29:49.227Z,15.85
2022-09-11T07:30:49.240Z,15.90
2022-09-11T07:31:49.320Z,15.90
2022-09-11T07:32:49.227Z,15.90
2022-09-11T07:33:49.163Z,15.90
2022-09-11T07:34:49.179Z,15.91
2022-09-11T07:35:49.158Z,15.88
2022-09-11T07:36:49.181Z,15.85
2022-09-11T07:37:50.938Z,15.88
2022-09-11T07:38:49.179Z,15.90
2022-09-11T07:39:49.182Z,15.90
2022-09-11T07:40:49.151Z,15.87
2022-09-11T07:41:49.113Z,15.85
2022-09-11T07:42:49.149Z,15.84
2022-09-11T07:43:49.136Z,15.81
2022-09-11T07:44:49.063Z,15.83
2022-09-11T07:45:49.054Z,15.83
2022-09-11T07:46:49.044Z,15.85
2022-09-11T07:47:49.042Z,15.81
2022-09-11T07:48:49.055Z,15.84
2022-09-11T07:49:49.019Z,15.84
2022-09-11T07:50:49.001Z,15.84
2022-09-11T07:51:49.028Z,15.84
2022-09-11T07:52:48.963Z,15.87
2022-09-11T07:53:48.988Z,15.88
2022-09-11T07:54:48.980Z,15.88
2022-09-11T07:55:48.941Z,15.90
2022-09-11T07:56:48.952Z,15.93
2022-09-11T07:57:49.003Z,15.96
2022-09-11T07:58:48.936Z,15.99
2022-09-11T07:59:48.879Z,16.05
2022-09-11T08:00:49.017Z,16.08
2022-09-11T08:01:48.870Z,16.09
2022-09-11T08:02:48.845Z,16.08
2022-09-11T08:03:48.867Z,16.13
2022-09-11T08:04:48.922Z,16.16
2022-09-11T08:05:48.839Z,16.22
2022-09-11T08:06:48.882Z,16.25
2022-09-11T08:07:48.818Z,16.28
2022-09-11T08:08:48.818Z,16.29
2022-09-11T08:09:56.053Z,16.34
2022-09-11T08:10:48.797Z,16.33
2022-09-11T08:11:48.864Z,16.36
2022-09-11T08:12:48.746Z,16.40
2022-09-11T08:13:48.725Z,16.47
2022-09-11T08:14:48.835Z,16.59
2022-09-11T08:15:48.717Z,16.70
2022-09-11T08:16:48.823Z,16.77
2022-09-11T08:17:48.710Z,16.87
2022-09-11T08:18:48.760Z,16.92
2022-09-11T08:19:48.802Z,16.99
2022-09-11T08:20:48.673Z,17.06
2022-09-11T08:21:48.654Z,17.12
2022-09-11T08:22:48.668Z,17.14
2022-09-11T08:23:48.627Z,17.20
2022-09-11T08:24:48.728Z,17.28
2022-09-11T08:25:48.651Z,17.41
2022-09-11T08:26:49.248Z,17.52
2022-09-11T08:27:48.720Z,17.59
2022-09-11T08:28:48.585Z,17.65
2022-09-11T08:29:48.692Z,17.53
2022-09-11T08:30:48.630Z,17.50
2022-09-11T08:31:48.580Z,17.50
2022-09-11T08:32:48.636Z,17.56
2022-09-11T08:33:48.565Z,17.69
2022-09-11T08:34:48.554Z,17.81
2022-09-11T08:35:48.524Z,17.88
2022-09-11T08:36:48.493Z,17.99
2022-09-11T08:37:51.660Z,18.12
2022-09-11T08:38:48.527Z,18.24
2022-09-11T08:39:48.505Z,18.27
2022-09-11T08:40:48.620Z,18.36
2022-09-11T08:41:48.502Z,18.39
2022-09-11T08:42:48.457Z,18.41
2022-09-11T08:43:48.452Z,18.43
2022-09-11T08:44:48.465Z,18.36
2022-09-11T08:45:48.431Z,18.36
2022-09-11T08:46:48.395Z,18.41
2022-09-11T08:47:48.446Z,18.42
2022-09-11T08:48:48.394Z,18.48
2022-09-11T08:49:48.376Z,18.52
2022-09-11T08:50:48.351Z,18.61
2022-09-11T08:51:48.353Z,18.64
2022-09-11T08:52:48.321Z,18.68
2022-09-11T08:53:48.312Z,18.78
2022-09-11T08:54:48.308Z,18.76
2022-09-11T08:55:48.311Z,18.64
2022-09-11T08:56:48.323Z,18.66
2022-09-11T08:57:48.276Z,18.52
2022-09-11T08:58:48.260Z,18.43
2022-09-11T08:59:48.343Z,18.33
2022-09-11T09:00:48.244Z,18.17
2022-09-11T09:01:48.403Z,18.05
2022-09-11T09:02:48.207Z,17.86
2022-09-11T09:03:48.211Z,17.63
2022-09-11T09:04:48.218Z,17.46
2022-09-11T09:05:48.196Z,17.46
2022-09-11T09:06:48.189Z,17.46
2022-09-11T09:07:48.214Z,17.50
2022-09-11T09:08:48.148Z,17.54
2022-09-11T09:09:48.162Z,17.59
2022-09-11T09:10:48.122Z,17.68
2022-09-11T09:11:48.136Z,17.76
2022-09-11T09:12:48.098Z,17.87
2022-09-11T09:13:48.117Z,18.01
2022-09-11T09:14:48.079Z,18.05
2022-09-11T09:15:48.151Z,18.11
2022-09-11T09:16:48.156Z,18.15
2022-09-11T09:17:48.046Z,18.23
2022-09-11T09:18:48.041Z,18.30
2022-09-11T09:19:48.080Z,18.34
2022-09-11T09:20:48.015Z,18.39
2022-09-11T09:21:48.018Z,18.46
2022-09-11T09:22:48.026Z,18.43
2022-09-11T09:23:48.020Z,18.48
2022-09-11T09:24:47.998Z,18.48
2022-09-11T09:25:48.014Z,18.54
2022-09-11T09:26:47.944Z,18.54
2022-09-11T09:27:47.951Z,18.58
2022-09-11T09:28:47.931Z,18.63
2022-09-11T09:29:47.960Z,18.71
2022-09-11T09:30:47.946Z,18.71
2022-09-11T09:31:47.909Z,18.75
2022-09-11T09:32:47.916Z,18.76
2022-09-11T09:33:47.918Z,18.86
2022-09-11T09:34:47.889Z,18.97
2022-09-11T09:35:47.914Z,18.85
2022-09-11T09:36:47.896Z,18.86
2022-09-11T09:37:47.861Z,18.94
2022-09-11T09:38:47.848Z,19.01
2022-09-11T09:39:47.909Z,18.94
2022-09-11T09:40:47.851Z,18.88
2022-09-11T09:41:47.855Z,18.94
2022-09-11T09:42:47.822Z,18.98
2022-09-11T09:43:47.841Z,19.01
2022-09-11T09:44:47.833Z,18.96
2022-09-11T09:45:47.857Z,18.94
2022-09-11T09:46:51.037Z,19.27
2022-09-11T09:47:47.778Z,19.47
2022-09-11T09:48:47.776Z,19.60
2022-09-11T09:49:47.769Z,19.74
2022-09-11T09:50:47.741Z,19.92
2022-09-11T09:51:47.836Z,20.07
2022-09-11T09:52:47.722Z,20.30
2022-09-11T09:53:47.772Z,20.36
2022-09-11T09:54:47.935Z,20.22
2022-09-11T09:55:47.776Z,20.15
2022-09-11T09:56:47.717Z,20.37
2022-09-11T09:57:47.805Z,20.73
2022-09-11T09:58:47.674Z,20.89
2022-09-11T09:59:47.632Z,20.74
2022-09-11T10:00:47.649Z,21.04
2022-09-11T10:01:47.813Z,21.28
2022-09-11T10:02:47.663Z,21.59
2022-09-11T10:03:47.621Z,21.88
2022-09-11T10:04:47.704Z,22.46
2022-09-11T10:05:47.630Z,22.49
2022-09-11T10:06:47.653Z,22.30
2022-09-11T10:07:47.559Z,21.69
2022-09-11T10:08:47.533Z,21.26
2022-09-11T10:09:47.562Z,21.07
2022-09-11T10:10:47.568Z,20.98
2022-09-11T10:11:47.509Z,20.82
2022-09-11T10:12:47.528Z,20.74
2022-09-11T10:13:47.529Z,20.68
2022-09-11T10:14:51.401Z,20.53
2022-09-11T10:15:47.537Z,20.26
2022-09-11T10:16:47.478Z,20.26
2022-09-11T10:17:47.460Z,20.18
2022-09-11T10:18:47.452Z,19.99
2022-09-11T10:19:47.499Z,19.96
2022-09-11T10:20:47.468Z,19.84
2022-09-11T10:21:47.433Z,19.81
2022-09-11T10:22:47.404Z,19.86
2022-09-11T10:23:47.417Z,19.81
2022-09-11T10:24:47.395Z,19.81
2022-09-11T10:25:47.456Z,19.75
2022-09-11T10:26:47.440Z,20.63
2022-09-11T10:27:47.378Z,21.51
2022-09-11T10:28:47.384Z,22.40
2022-09-11T10:29:47.333Z,23.21
2022-09-11T10:30:47.356Z,23.79
2022-09-11T10:31:47.388Z,24.25
2022-09-11T10:32:47.326Z,24.78
2022-09-11T10:33:47.273Z,25.04
2022-09-11T10:34:47.273Z,25.15
2022-09-11T10:35:47.283Z,25.19
2022-09-11T10:36:47.233Z,25.22
2022-09-11T10:37:47.218Z,25.09
2022-09-11T10:38:47.442Z,24.97
2022-09-11T10:39:47.304Z,25.34
2022-09-11T10:40:47.202Z,25.51
2022-09-11T10:41:47.201Z,25.21
2022-09-11T10:42:47.159Z,24.78
2022-09-11T10:43:47.158Z,23.96
2022-09-11T10:44:47.185Z,23.41
2022-09-11T10:45:47.270Z,22.85
2022-09-11T10:46:47.144Z,22.36
2022-09-11T10:47:47.163Z,22.01
2022-09-11T10:48:47.112Z,21.73
2022-09-11T10:49:47.102Z,21.50
2022-09-11T10:50:47.142Z,21.16
2022-09-11T10:51:47.717Z,20.92
2022-09-11T10:52:47.122Z,20.79
2022-09-11T10:53:47.048Z,20.60
2022-09-11T10:54:47.026Z,20.53
2022-09-11T10:55:47.061Z,20.49
2022-09-11T10:56:47.067Z,20.46
2022-09-11T10:57:47.083Z,20.56
2022-09-11T10:58:47.006Z,20.56
2022-09-11T10:59:47.000Z,20.60
2022-09-11T11:00:46.994Z,20.50
2022-09-11T11:01:47.111Z,20.46
2022-09-11T11:02:46.980Z,20.50
2022-09-11T11:03:46.976Z,20.44
2022-09-11T11:04:46.966Z,20.37
2022-09-11T11:05:46.971Z,20.48
2022-09-11T11:06:46.937Z,20.48
2022-09-11T11:07:46.939Z,20.52
2022-09-11T11:08:46.900Z,21.08
2022-09-11T11:09:46.887Z,21.77
2022-09-11T11:10:46.867Z,22.43
2022-09-11T11:11:46.872Z,22.27
2022-09-11T11:12:46.842Z,22.07
2022-09-11T11:13:46.877Z,21.94
2022-09-11T11:14:46.824Z,21.78
2022-09-11T11:15:46.844Z,21.67
2022-09-11T11:16:46.808Z,21.74
2022-09-11T11:17:46.800Z,22.64
2022-09-11T11:18:46.804Z,23.74
2022-09-11T11:19:46.803Z,23.64
2022-09-11T11:20:46.762Z,23.33
2022-09-11T11:21:46.767Z,23.01
2022-09-11T11:22:46.747Z,22.55
2022-09-11T11:23:46.777Z,22.09
2022-09-11T11:24:46.748Z,21.98
2022-09-11T11:25:46.735Z,22.09
2022-09-11T11:26:46.701Z,22.00
2022-09-11T11:27:46.713Z,21.85
2022-09-11T11:28:46.733Z,21.73
2022-09-11T11:29:46.693Z,21.67
2022-09-11T11:30:46.718Z,21.59
2022-09-11T11:31:46.687Z,21.59
2022-09-11T11:32:46.689Z,21.69
2022-09-11T11:33:46.696Z,21.69
2022-09-11T11:34:46.852Z,21.80
2022-09-11T11:35:46.645Z,22.12
2022-09-11T11:36:46.605Z,22.41
2022-09-11T11:37:46.609Z,22.23
2022-09-11T11:38:46.600Z,22.12
2022-09-11T11:39:46.637Z,22.01
2022-09-11T11:40:46.588Z,22.46
2022-09-11T11:41:46.574Z,23.11
2022-09-11T11:42:46.550Z,23.55
2022-09-11T11:43:46.553Z,23.86
2022-09-11T11:44:46.597Z,24.13
2022-09-11T11:45:46.740Z,24.34
2022-09-11T11:46:46.503Z,24.41
2022-09-11T11:47:46.541Z,24.31
2022-09-11T11:48:46.487Z,23.41
2022-09-11T11:49:46.528Z,22.98
2022-09-11T11:50:46.484Z,22.64
2022-09-11T11:51:46.491Z,22.44
2022-09-11T11:52:46.452Z,22.43
2022-09-11T11:53:46.452Z,22.34
2022-09-11T11:54:46.587Z,22.09
2022-09-11T11:55:46.437Z,21.91
2022-09-11T11:56:46.403Z,21.71
2022-09-11T11:57:46.408Z,21.51
2022-09-11T11:58:46.379Z,21.40
2022-09-11T11:59:46.422Z,21.25
2022-09-11T12:00:46.386Z,21.04
2022-09-11T12:01:46.382Z,20.92
2022-09-11T12:02:46.338Z,20.83
2022-09-11T12:03:46.454Z,20.67
2022-09-11T12:04:46.410Z,20.48
2022-09-11T12:05:46.355Z,20.30
2022-09-11T12:06:46.323Z,20.26
2022-09-11T12:07:46.322Z,20.29
2022-09-11T12:08:46.286Z,20.27
2022-09-11T12:09:46.333Z,20.29
2022-09-11T12:10:46.258Z,20.23
2022-09-11T12:11:46.286Z,20.12
2022-09-11T12:12:46.249Z,20.09
2022-09-11T12:13:46.270Z,20.08
2022-09-11T12:14:46.245Z,20.09
2022-09-11T12:15:46.261Z,20.05
2022-09-11T12:16:46.220Z,20.00
2022-09-11T12:17:46.203Z,19.96
2022-09-11T12:18:46.242Z,19.93
2022-09-11T12:19:46.226Z,19.90
2022-09-11T12:20:46.189Z,19.89
2022-09-11T12:21:46.178Z,19.89
2022-09-11T12:22:46.178Z,19.90
2022-09-11T12:23:46.249Z,19.92
2022-09-11T12:24:46.150Z,19.93
2022-09-11T12:25:46.113Z,19.92
2022-09-11T12:26:46.148Z,19.94
2022-09-11T12:27:46.122Z,19.96
2022-09-11T12:28:46.096Z,19.93
2022-09-11T12:29:46.118Z,19.93
2022-09-11T12:30:46.117Z,19.99
2022-09-11T12:31:46.089Z,20.02
2022-09-11T12:32:46.041Z,20.00
2022-09-11T12:33:46.041Z,19.92
2022-09-11T12:34:46.025Z,19.99
2022-09-11T12:35:46.041Z,20.08
2022-09-11T12:36:46.025Z,20.22
2022-09-11T12:37:46.026Z,20.22
2022-09-11T12:38:45.973Z,20.26
2022-09-11T12:39:46.001Z,20.36
2022-09-11T12:40:45.958Z,20.48
2022-09-11T12:41:45.993Z,20.53
2022-09-11T12:42:45.943Z,20.55
2022-09-11T12:43:45.936Z,20.61
2022-09-11T12:44:45.906Z,20.60
2022-09-11T12:45:45.926Z,20.63
2022-09-11T12:46:45.905Z,20.58
2022-09-11T12:47:45.900Z,20.63
2022-09-11T12:48:56.279Z,20.65
2022-09-11T12:49:45.908Z,20.71
2022-09-11T12:50:45.877Z,20.75
2022-09-11T12:51:45.892Z,20.73
2022-09-11T12:52:45.873Z,20.70